Time;durP1;ratioP1;P1;durP2;ratioP2;P2;SDS_P1;SDS_P2;PMS_P1;PMS_P2;Temp;Humidity;BMP_temperature;BMP_pressure;BME280_temperature;BME280_humidity;BME280_pressure;Samples;Min_cycle;Max_cycle;Signal;HPM_P1;HPM_P2
2022/08/31 00:05:55;;;;;;;2.90;1.10;;;;;;;;;;4927460;29;20703;-61
2022/08/31 00:08:23;;;;;;;1.48;1.13;;;;;;;;;;4934117;28;20243;-60
2022/08/31 00:10:49;;;;;;;1.10;1.00;;;;;;;;;;4946004;28;20238;-59
2022/08/31 00:13:16;;;;;;;2.40;1.20;;;;;;;;;;4940787;28;20240;-59
2022/08/31 00:15:43;;;;;;;1.88;1.50;;;;;;;;;;4935901;28;20268;-60
2022/08/31 00:18:09;;;;;;;1.38;1.27;;;;;;;;;;4933798;28;20723;-59
2022/08/31 00:20:36;;;;;;;1.38;1.25;;;;;;;;;;4935371;28;20627;-60
2022/08/31 00:23:02;;;;;;;1.48;1.10;;;;;;;;;;4942812;28;20263;-60
2022/08/31 00:25:30;;;;;;;2.22;1.58;;;;;;;;;;4939998;28;20267;-59
2022/08/31 00:27:57;;;;;;;1.45;1.35;;;;;;;;;;4944451;28;20231;-60
2022/08/31 00:30:23;;;;;;;1.08;0.93;;;;;;;;;;4940937;28;20239;-60
2022/08/31 00:32:50;;;;;;;1.98;1.20;;;;;;;;;;4944623;28;20235;-60
2022/08/31 00:35:16;;;;;;;2.65;1.25;;;;;;;;;;4931416;28;20671;-60
2022/08/31 00:37:43;;;;;;;1.45;1.20;;;;;;;;;;4936181;28;20238;-59
2022/08/31 00:40:09;;;;;;;1.48;1.38;;;;;;;;;;4932110;28;20658;-60
2022/08/31 00:42:37;;;;;;;3.58;1.63;;;;;;;;;;4936283;28;20240;-62
2022/08/31 00:45:05;;;;;;;1.67;1.00;;;;;;;;;;4939265;28;20254;-60
2022/08/31 00:47:31;;;;;;;1.95;1.10;;;;;;;;;;4944300;28;20231;-60
2022/08/31 00:49:57;;;;;;;7.18;1.70;;;;;;;;;;4938400;28;20319;-61
2022/08/31 00:52:27;;;;;;;1.98;1.60;;;;;;;;;;4945159;28;20753;-59
2022/08/31 00:54:54;;;;;;;1.27;1.10;;;;;;;;;;4943326;28;20314;-59
2022/08/31 00:57:21;;;;;;;1.98;1.35;;;;;;;;;;4944093;28;20493;-58
2022/08/31 00:59:49;;;;;;;0.90;0.90;;;;;;;;;;4939939;28;20261;-59
2022/08/31 01:02:15;;;;;;;1.70;1.35;;;;;;;;;;4943560;28;20235;-59
2022/08/31 01:04:41;;;;;;;2.05;1.20;;;;;;;;;;4942790;28;20231;-59
2022/08/31 01:07:08;;;;;;;1.13;1.02;;;;;;;;;;4942147;28;20239;-57
2022/08/31 01:09:36;;;;;;;1.30;1.17;;;;;;;;;;4938759;28;20235;-58
2022/08/31 01:12:03;;;;;;;6.45;1.92;;;;;;;;;;4943884;28;20657;-58
2022/08/31 01:14:29;;;;;;;2.78;1.77;;;;;;;;;;4938235;28;20231;-58
2022/08/31 01:16:57;;;;;;;1.38;1.27;;;;;;;;;;4943687;28;20232;-59
2022/08/31 01:19:27;;;;;;;1.08;0.98;;;;;;;;;;4944591;28;20235;-58
2022/08/31 01:21:56;;;;;;;2.97;1.35;;;;;;;;;;4940981;28;20242;-58
2022/08/31 01:24:26;;;;;;;1.33;1.20;;;;;;;;;;4942930;28;20239;-58
2022/08/31 01:26:53;;;;;;;1.48;1.30;;;;;;;;;;4944355;28;20239;-58
2022/08/31 01:29:19;;;;;;;1.27;1.17;;;;;;;;;;4943083;28;20239;-59
2022/08/31 01:31:46;;;;;;;2.28;1.10;;;;;;;;;;4937923;28;20239;-59
2022/08/31 01:34:13;;;;;;;2.58;1.40;;;;;;;;;;4944994;28;20241;-58
2022/08/31 01:36:41;;;;;;;2.75;1.20;;;;;;;;;;4938614;28;20259;-58
2022/08/31 01:39:08;;;;;;;1.20;1.08;;;;;;;;;;4943660;28;20732;-57
2022/08/31 01:41:40;;;;;;;2.72;1.25;;;;;;;;;;4942229;28;20239;-57
2022/08/31 01:44:06;;;;;;;1.38;1.27;;;;;;;;;;4944566;28;20245;-57
2022/08/31 01:46:32;;;;;;;2.92;1.40;;;;;;;;;;4939995;28;20238;-57
2022/08/31 01:48:59;;;;;;;1.52;1.27;;;;;;;;;;4941446;28;20235;-58
2022/08/31 01:51:25;;;;;;;1.88;1.42;;;;;;;;;;4944365;28;20239;-59
2022/08/31 01:53:52;;;;;;;1.20;1.10;;;;;;;;;;4942243;28;20227;-57
2022/08/31 01:56:20;;;;;;;3.90;1.52;;;;;;;;;;4945360;28;20251;-58
2022/08/31 01:58:48;;;;;;;2.10;1.50;;;;;;;;;;4942302;28;20327;-59
2022/08/31 02:01:15;;;;;;;2.58;1.38;;;;;;;;;;4945670;28;20313;-58
2022/08/31 02:03:41;;;;;;;1.92;1.25;;;;;;;;;;4937746;28;20247;-58
2022/08/31 02:06:08;;;;;;;1.70;1.45;;;;;;;;;;4932462;28;20243;-57
2022/08/31 02:08:35;;;;;;;2.47;1.30;;;;;;;;;;4939652;28;20243;-57
2022/08/31 02:11:01;;;;;;;1.38;1.27;;;;;;;;;;4946440;28;20238;-58
2022/08/31 02:13:27;;;;;;;1.80;1.60;;;;;;;;;;4942672;28;20242;-58
2022/08/31 02:15:55;;;;;;;4.43;1.73;;;;;;;;;;4944370;28;20318;-58
2022/08/31 02:18:21;;;;;;;2.42;1.38;;;;;;;;;;4944543;28;20235;-58
2022/08/31 02:20:48;;;;;;;1.30;1.08;;;;;;;;;;4941116;28;20234;-58
2022/08/31 02:23:14;;;;;;;2.42;1.20;;;;;;;;;;4938275;28;20263;-59
2022/08/31 02:25:40;;;;;;;1.48;1.38;;;;;;;;;;4941548;28;20727;-57
2022/08/31 02:28:07;;;;;;;1.40;1.30;;;;;;;;;;4942796;28;20311;-56
2022/08/31 02:30:34;;;;;;;1.30;1.20;;;;;;;;;;4947392;28;20910;-58
2022/08/31 02:33:01;;;;;;;1.52;1.15;;;;;;;;;;4941982;28;20236;-57
2022/08/31 02:35:28;;;;;;;1.45;1.35;;;;;;;;;;4946472;28;20319;-58
2022/08/31 02:37:54;;;;;;;1.33;1.23;;;;;;;;;;4946752;28;20314;-58
2022/08/31 02:40:21;;;;;;;3.72;1.15;;;;;;;;;;4935888;28;20243;-58
2022/08/31 02:42:47;;;;;;;3.58;1.58;;;;;;;;;;4942561;28;20579;-58
2022/08/31 02:45:13;;;;;;;2.10;1.15;;;;;;;;;;4944939;28;20242;-57
2022/08/31 02:47:40;;;;;;;1.42;1.25;;;;;;;;;;4939208;28;20223;-57
2022/08/31 02:50:08;;;;;;;1.63;1.50;;;;;;;;;;4944334;28;20235;-57
2022/08/31 02:52:34;;;;;;;4.97;1.33;;;;;;;;;;4940515;28;20235;-58
2022/08/31 02:55:01;;;;;;;2.85;1.63;;;;;;;;;;4941601;28;20236;-56
2022/08/31 02:57:27;;;;;;;2.13;1.65;;;;;;;;;;4943194;28;20235;-57
2022/08/31 02:59:53;;;;;;;1.98;1.33;;;;;;;;;;4943982;28;20239;-59
2022/08/31 03:02:21;;;;;;;1.20;1.10;;;;;;;;;;4942454;28;20239;-57
2022/08/31 03:04:47;;;;;;;1.30;1.20;;;;;;;;;;4942384;28;20235;-58
2022/08/31 03:07:15;;;;;;;1.50;1.40;;;;;;;;;;4943148;28;20239;-58
2022/08/31 03:09:41;;;;;;;2.90;1.63;;;;;;;;;;4942657;28;20227;-58
2022/08/31 03:12:08;;;;;;;2.95;1.77;;;;;;;;;;4943512;28;20314;-58
2022/08/31 03:14:34;;;;;;;1.92;1.30;;;;;;;;;;4945127;28;20310;-58
2022/08/31 03:17:00;;;;;;;3.70;1.92;;;;;;;;;;4941700;28;20238;-58
2022/08/31 03:19:26;;;;;;;1.58;1.30;;;;;;;;;;4942100;28;20231;-57
2022/08/31 03:21:53;;;;;;;1.45;1.35;;;;;;;;;;4940105;28;20238;-58
2022/08/31 03:24:21;;;;;;;2.50;1.30;;;;;;;;;;4938664;28;20248;-57
2022/08/31 03:26:48;;;;;;;3.28;1.55;;;;;;;;;;4942248;28;20231;-58
2022/08/31 03:29:15;;;;;;;3.17;1.38;;;;;;;;;;4936178;28;20268;-58
2022/08/31 03:31:41;;;;;;;2.35;1.15;;;;;;;;;;4942113;28;20231;-57
2022/08/31 03:34:07;;;;;;;1.75;1.60;;;;;;;;;;4948063;28;20235;-57
2022/08/31 03:36:34;;;;;;;2.15;1.73;;;;;;;;;;4947729;28;20251;-57
2022/08/31 03:39:00;;;;;;;1.60;1.50;;;;;;;;;;4948236;28;20705;-57
2022/08/31 03:41:28;;;;;;;3.25;1.50;;;;;;;;;;4944306;28;20242;-57
2022/08/31 03:43:54;;;;;;;1.70;1.60;;;;;;;;;;4944925;28;20239;-58
2022/08/31 03:46:21;;;;;;;2.80;1.77;;;;;;;;;;4946898;28;20717;-58
2022/08/31 03:48:47;;;;;;;5.57;2.03;;;;;;;;;;4944966;28;20642;-58
2022/08/31 03:51:14;;;;;;;3.75;1.13;;;;;;;;;;4945551;28;20241;-58
2022/08/31 03:53:41;;;;;;;1.42;1.33;;;;;;;;;;4945277;28;20232;-57
2022/08/31 03:56:08;;;;;;;1.95;1.45;;;;;;;;;;4950152;28;20255;-58
2022/08/31 03:58:36;;;;;;;1.65;1.50;;;;;;;;;;4931558;28;20239;-58
2022/08/31 04:01:03;;;;;;;3.03;1.67;;;;;;;;;;4943388;28;20433;-57
2022/08/31 04:03:29;;;;;;;2.80;2.10;;;;;;;;;;4946939;28;20749;-59
2022/08/31 04:05:56;;;;;;;1.40;1.30;;;;;;;;;;4943263;28;20246;-60
2022/08/31 04:08:22;;;;;;;5.22;2.03;;;;;;;;;;4936650;28;20236;-57
2022/08/31 04:10:50;;;;;;;3.95;1.88;;;;;;;;;;4947447;28;20289;-58
2022/08/31 04:13:16;;;;;;;3.20;2.05;;;;;;;;;;4946708;28;20282;-59
2022/08/31 04:15:45;;;;;;;2.40;1.52;;;;;;;;;;4950299;28;20732;-56
2022/08/31 04:18:12;;;;;;;2.08;1.73;;;;;;;;;;4945956;28;20294;-56
2022/08/31 04:20:39;;;;;;;1.65;1.55;;;;;;;;;;4941190;28;20330;-58
2022/08/31 04:23:06;;;;;;;2.97;1.88;;;;;;;;;;4945427;28;20240;-58
2022/08/31 04:25:36;;;;;;;2.20;2.00;;;;;;;;;;4947325;28;20246;-57
2022/08/31 04:28:03;;;;;;;3.15;1.65;;;;;;;;;;4936254;28;20233;-57
2022/08/31 04:30:29;;;;;;;2.55;1.85;;;;;;;;;;4936055;28;20243;-57
2022/08/31 04:33:00;;;;;;;2.20;1.95;;;;;;;;;;4940457;28;20227;-60
2022/08/31 04:35:27;;;;;;;3.38;2.08;;;;;;;;;;4944427;28;20235;-58
2022/08/31 04:37:54;;;;;;;3.63;2.05;;;;;;;;;;4947731;28;20237;-59
2022/08/31 04:40:20;;;;;;;5.45;2.28;;;;;;;;;;4944509;28;20235;-58
2022/08/31 04:42:47;;;;;;;2.60;1.95;;;;;;;;;;4945294;28;20246;-60
2022/08/31 04:45:14;;;;;;;2.05;1.85;;;;;;;;;;4948054;28;20638;-59
2022/08/31 04:47:41;;;;;;;7.03;3.03;;;;;;;;;;4949025;28;20681;-58
2022/08/31 04:50:10;;;;;;;3.90;2.22;;;;;;;;;;4947062;28;20415;-59
2022/08/31 04:52:36;;;;;;;3.13;2.72;;;;;;;;;;4936159;28;20254;-59
2022/08/31 04:55:03;;;;;;;3.75;2.47;;;;;;;;;;4931853;28;20684;-59
2022/08/31 04:57:30;;;;;;;3.25;2.22;;;;;;;;;;4937449;28;20792;-60
2022/08/31 04:59:56;;;;;;;2.58;1.98;;;;;;;;;;4947937;28;20235;-60
2022/08/31 05:02:23;;;;;;;4.97;2.90;;;;;;;;;;4944585;28;20339;-60
2022/08/31 05:04:49;;;;;;;5.50;2.40;;;;;;;;;;4946779;28;20250;-59
2022/08/31 05:07:16;;;;;;;2.05;1.85;;;;;;;;;;4947084;28;20231;-58
2022/08/31 05:09:43;;;;;;;3.13;2.22;;;;;;;;;;4943203;28;20236;-59
2022/08/31 05:12:09;;;;;;;3.03;2.33;;;;;;;;;;4947459;28;20240;-58
2022/08/31 05:14:35;;;;;;;2.25;2.05;;;;;;;;;;4947496;29;20619;-60
2022/08/31 05:17:05;;;;;;;5.15;2.45;;;;;;;;;;4949658;28;20243;-62
2022/08/31 05:19:31;;;;;;;4.90;3.05;;;;;;;;;;4953285;28;20246;-59
2022/08/31 05:21:57;;;;;;;3.83;2.13;;;;;;;;;;4943579;29;20232;-58
2022/08/31 05:24:25;;;;;;;3.17;2.33;;;;;;;;;;4945938;28;20240;-58
2022/08/31 05:26:52;;;;;;;3.75;2.88;;;;;;;;;;4939201;28;20252;-60
2022/08/31 05:29:20;;;;;;;5.75;2.58;;;;;;;;;;4952055;28;20257;-59
2022/08/31 05:31:47;;;;;;;4.10;2.53;;;;;;;;;;4942186;28;20306;-58
2022/08/31 05:34:14;;;;;;;4.03;2.90;;;;;;;;;;4943720;29;20917;-59
2022/08/31 05:36:41;;;;;;;4.88;2.47;;;;;;;;;;4945315;28;20242;-59
2022/08/31 05:39:10;;;;;;;4.10;2.55;;;;;;;;;;4952509;28;20232;-58
2022/08/31 05:41:39;;;;;;;6.38;2.97;;;;;;;;;;4943076;28;20322;-59
2022/08/31 05:44:05;;;;;;;3.35;2.35;;;;;;;;;;4934335;28;20664;-58
2022/08/31 05:46:32;;;;;;;2.65;2.30;;;;;;;;;;4942834;28;20250;-60
2022/08/31 05:48:59;;;;;;;3.97;2.55;;;;;;;;;;4942276;28;20295;-58
2022/08/31 05:51:25;;;;;;;2.83;2.10;;;;;;;;;;4929942;28;20242;-59
2022/08/31 05:53:51;;;;;;;3.08;2.50;;;;;;;;;;4945674;28;20227;-58
2022/08/31 05:56:19;;;;;;;2.90;2.53;;;;;;;;;;4942275;28;20748;-60
2022/08/31 05:58:47;;;;;;;6.50;2.28;;;;;;;;;;4946385;28;20275;-58
2022/08/31 06:01:14;;;;;;;3.47;2.05;;;;;;;;;;4942472;28;20231;-59
2022/08/31 06:03:41;;;;;;;7.22;3.47;;;;;;;;;;4937817;28;20236;-58
2022/08/31 06:06:08;;;;;;;5.07;2.45;;;;;;;;;;4949006;28;20247;-61
2022/08/31 06:08:35;;;;;;;3.03;1.65;;;;;;;;;;4950113;28;20231;-59
2022/08/31 06:11:01;;;;;;;4.75;2.00;;;;;;;;;;4949173;28;20227;-59
2022/08/31 06:13:28;;;;;;;1.95;1.65;;;;;;;;;;4944498;28;20234;-60
2022/08/31 06:15:58;;;;;;;3.00;1.85;;;;;;;;;;4942823;28;20764;-58
2022/08/31 06:18:24;;;;;;;7.53;2.13;;;;;;;;;;4938642;28;20243;-58
2022/08/31 06:21:00;;;;;;;4.07;1.63;;;;;;;;;;4940123;28;20243;-59
2022/08/31 06:23:26;;;;;;;2.78;1.55;;;;;;;;;;4943599;28;20241;-58
2022/08/31 06:26:00;;;;;;;2.53;1.38;;;;;;;;;;4940105;28;20239;-58
2022/08/31 06:28:28;;;;;;;1.80;1.50;;;;;;;;;;4939183;28;20970;-58
2022/08/31 06:30:56;;;;;;;4.20;1.67;;;;;;;;;;4942219;28;20232;-58
2022/08/31 06:33:23;;;;;;;2.03;1.27;;;;;;;;;;4940336;28;20239;-59
2022/08/31 06:35:49;;;;;;;6.70;1.40;;;;;;;;;;4937029;28;20320;-59
2022/08/31 06:38:16;;;;;;;13.68;1.67;;;;;;;;;;4947695;28;20227;-59
2022/08/31 06:40:42;;;;;;;1.85;1.40;;;;;;;;;;4946837;28;20608;-58
2022/08/31 06:43:08;;;;;;;1.73;1.45;;;;;;;;;;4943969;28;20242;-59
2022/08/31 06:45:35;;;;;;;3.88;1.48;;;;;;;;;;4943363;28;20235;-59
2022/08/31 06:48:02;;;;;;;2.67;1.40;;;;;;;;;;4938189;28;20344;-58
2022/08/31 06:50:29;;;;;;;2.50;0.82;;;;;;;;;;4943384;28;20242;-59
2022/08/31 06:52:56;;;;;;;3.03;1.50;;;;;;;;;;4944503;28;20235;-59
2022/08/31 06:55:22;;;;;;;3.13;1.20;;;;;;;;;;4948270;28;20258;-59
2022/08/31 06:57:48;;;;;;;2.85;1.10;;;;;;;;;;4948658;29;20246;-58
2022/08/31 07:00:15;;;;;;;1.80;1.10;;;;;;;;;;4943817;28;20237;-59
2022/08/31 07:02:41;;;;;;;2.60;0.93;;;;;;;;;;4949256;28;20231;-59
2022/08/31 07:05:09;;;;;;;1.23;1.00;;;;;;;;;;4950225;28;20243;-58
2022/08/31 07:07:35;;;;;;;4.07;1.10;;;;;;;;;;4949398;28;20245;-59
2022/08/31 07:10:02;;;;;;;0.82;0.82;;;;;;;;;;4946457;28;20239;-58
2022/08/31 07:12:29;;;;;;;3.42;0.90;;;;;;;;;;4950046;28;20239;-59
2022/08/31 07:14:55;;;;;;;1.23;0.85;;;;;;;;;;4949693;28;20713;-60
2022/08/31 07:17:22;;;;;;;0.80;0.80;;;;;;;;;;4940546;28;20243;-59
2022/08/31 07:19:48;;;;;;;4.03;0.90;;;;;;;;;;4944366;28;20231;-60
2022/08/31 07:22:16;;;;;;;4.25;1.17;;;;;;;;;;4952740;28;20285;-58
2022/08/31 07:24:42;;;;;;;2.22;1.20;;;;;;;;;;4948196;28;20236;-59
2022/08/31 07:27:11;;;;;;;2.72;1.10;;;;;;;;;;4949127;28;20242;-59
2022/08/31 07:29:39;;;;;;;3.42;1.05;;;;;;;;;;4941470;28;20445;-58
2022/08/31 07:32:06;;;;;;;0.70;0.65;;;;;;;;;;4939999;28;20303;-58
2022/08/31 07:34:34;;;;;;;3.33;1.23;;;;;;;;;;4950456;28;20242;-58
2022/08/31 07:42:31;;;;;;;2.35;1.15;;;;;;;;;;4953019;28;20242;-59
2022/08/31 07:44:59;;;;;;;1.65;1.20;;;;;;;;;;4948911;28;20243;-58
2022/08/31 07:47:27;;;;;;;1.25;1.15;;;;;;;;;;4952301;28;20227;-59
2022/08/31 07:49:54;;;;;;;1.38;0.70;;;;;;;;;;4946701;28;20268;-58
2022/08/31 07:52:22;;;;;;;1.23;1.02;;;;;;;;;;4938363;28;20267;-58
2022/08/31 07:54:51;;;;;;;1.48;0.70;;;;;;;;;;4950073;28;20239;-58
2022/08/31 07:57:17;;;;;;;1.52;1.02;;;;;;;;;;4946362;28;20239;-57
2022/08/31 07:59:45;;;;;;;1.00;0.65;;;;;;;;;;4944462;28;20686;-58
2022/08/31 08:02:12;;;;;;;1.10;0.80;;;;;;;;;;4944273;28;20246;-57
2022/08/31 08:04:39;;;;;;;2.72;0.80;;;;;;;;;;4948848;28;20576;-58
2022/08/31 08:07:06;;;;;;;1.15;0.90;;;;;;;;;;4952049;28;20235;-58
2022/08/31 08:09:33;;;;;;;1.20;0.93;;;;;;;;;;4946697;28;20242;-58
2022/08/31 08:12:05;;;;;;;2.08;1.00;;;;;;;;;;4941392;28;20236;-58
2022/08/31 08:14:32;;;;;;;2.55;1.02;;;;;;;;;;4942253;28;20242;-58
2022/08/31 08:16:58;;;;;;;2.53;0.77;;;;;;;;;;4948641;28;20273;-58
2022/08/31 08:19:25;;;;;;;2.08;0.68;;;;;;;;;;4947529;28;20337;-58
2022/08/31 08:21:51;;;;;;;0.82;0.70;;;;;;;;;;4946694;28;20243;-58
2022/08/31 08:24:18;;;;;;;3.03;0.82;;;;;;;;;;4949337;28;20733;-58
2022/08/31 08:26:46;;;;;;;2.45;1.02;;;;;;;;;;4945958;28;20242;-58
2022/08/31 08:29:13;;;;;;;0.77;0.77;;;;;;;;;;4931517;29;20243;-58
2022/08/31 08:31:40;;;;;;;3.08;1.30;;;;;;;;;;4947442;28;20239;-59
2022/08/31 08:34:07;;;;;;;1.95;0.95;;;;;;;;;;4946146;28;20786;-58
2022/08/31 08:36:34;;;;;;;3.63;0.95;;;;;;;;;;4942824;28;20247;-57
2022/08/31 08:39:01;;;;;;;0.90;0.80;;;;;;;;;;4940462;28;20240;-58
2022/08/31 08:41:28;;;;;;;1.90;0.90;;;;;;;;;;4936268;29;20753;-57
2022/08/31 08:43:57;;;;;;;0.98;0.60;;;;;;;;;;4946366;28;20231;-58
2022/08/31 08:46:28;;;;;;;3.70;1.15;;;;;;;;;;4937935;29;20247;-59
2022/08/31 08:48:58;;;;;;;3.38;0.98;;;;;;;;;;4946143;28;20239;-58
2022/08/31 08:51:25;;;;;;;1.20;0.85;;;;;;;;;;4938005;28;20236;-58
2022/08/31 08:53:55;;;;;;;1.25;0.70;;;;;;;;;;4946926;28;20239;-58
2022/08/31 08:56:22;;;;;;;2.10;0.75;;;;;;;;;;4946856;28;20239;-59
2022/08/31 08:58:49;;;;;;;1.65;0.88;;;;;;;;;;4943508;28;20245;-58
2022/08/31 09:01:21;;;;;;;2.45;0.93;;;;;;;;;;4942410;28;20231;-57
2022/08/31 09:03:53;;;;;;;1.80;1.00;;;;;;;;;;4940235;28;20247;-56
2022/08/31 09:06:27;;;;;;;3.05;0.82;;;;;;;;;;4937457;28;20240;-57
2022/08/31 09:09:17;;;;;;;0.93;0.80;;;;;;;;;;4942099;28;20235;-56
2022/08/31 09:11:48;;;;;;;2.00;1.15;;;;;;;;;;4941289;28;20235;-56
2022/08/31 09:14:21;;;;;;;0.70;0.70;;;;;;;;;;4946303;28;20231;-56
2022/08/31 09:16:50;;;;;;;1.92;0.90;;;;;;;;;;4942710;28;20235;-58
2022/08/31 09:19:19;;;;;;;3.55;0.88;;;;;;;;;;4945965;28;20331;-57
2022/08/31 09:21:47;;;;;;;2.63;0.68;;;;;;;;;;4936085;28;20243;-56
2022/08/31 09:24:15;;;;;;;1.20;1.10;;;;;;;;;;4937858;28;20239;-57
2022/08/31 09:26:57;;;;;;;0.60;0.60;;;;;;;;;;4943850;28;20322;-56
2022/08/31 09:29:25;;;;;;;0.68;0.52;;;;;;;;;;4943321;28;20658;-58
2022/08/31 09:31:59;;;;;;;1.05;0.90;;;;;;;;;;4946401;28;20231;-58
2022/08/31 09:34:30;;;;;;;0.77;0.70;;;;;;;;;;4947412;28;20250;-57
2022/08/31 09:37:15;;;;;;;2.53;0.90;;;;;;;;;;4942575;28;20279;-59
2022/08/31 09:39:41;;;;;;;1.92;0.93;;;;;;;;;;4942276;28;20262;-58
2022/08/31 09:42:13;;;;;;;1.20;0.75;;;;;;;;;;4942871;28;20231;-56
2022/08/31 09:44:41;;;;;;;3.35;0.90;;;;;;;;;;4936694;28;20270;-57
2022/08/31 09:47:27;;;;;;;2.65;1.00;;;;;;;;;;4943508;28;20231;-60
2022/08/31 09:49:56;;;;;;;1.30;0.90;;;;;;;;;;4945896;28;20223;-56
2022/08/31 09:55:13;;;;;;;1.30;0.93;;;;;;;;;;4946270;28;20241;-57
2022/08/31 09:57:52;;;;;;;2.08;1.15;;;;;;;;;;4945977;28;20718;-59
2022/08/31 10:00:27;;;;;;;1.38;0.90;;;;;;;;;;4938500;28;20706;-57
2022/08/31 10:02:56;;;;;;;1.23;0.73;;;;;;;;;;4947496;28;20230;-57
2022/08/31 10:05:30;;;;;;;0.80;0.80;;;;;;;;;;4942571;28;20239;-57
2022/08/31 10:08:03;;;;;;;1.45;0.82;;;;;;;;;;4941524;28;20627;-59
2022/08/31 10:10:32;;;;;;;0.88;0.65;;;;;;;;;;4941701;28;20290;-57
2022/08/31 10:13:00;;;;;;;2.45;0.80;;;;;;;;;;4950573;28;20234;-58
2022/08/31 10:15:28;;;;;;;1.92;0.90;;;;;;;;;;4946892;28;20298;-58
2022/08/31 10:17:56;;;;;;;3.08;0.98;;;;;;;;;;4951678;28;20232;-57
2022/08/31 10:20:24;;;;;;;1.90;0.75;;;;;;;;;;4941655;28;20710;-59
2022/08/31 10:22:55;;;;;;;1.50;1.15;;;;;;;;;;4946614;28;20785;-58
2022/08/31 10:25:25;;;;;;;1.15;1.05;;;;;;;;;;4950513;28;20238;-64
2022/08/31 10:27:56;;;;;;;0.77;0.68;;;;;;;;;;4943083;28;20337;-58
2022/08/31 10:30:27;;;;;;;2.15;0.82;;;;;;;;;;4943754;28;21026;-57
2022/08/31 10:32:59;;;;;;;2.00;0.80;;;;;;;;;;4941296;28;20232;-58
2022/08/31 10:35:28;;;;;;;0.88;0.85;;;;;;;;;;4950196;28;20246;-58
2022/08/31 10:38:06;;;;;;;0.77;0.75;;;;;;;;;;4946030;28;20255;-58
2022/08/31 10:40:37;;;;;;;1.10;0.80;;;;;;;;;;4954884;28;20246;-59
2022/08/31 10:43:09;;;;;;;0.82;0.70;;;;;;;;;;4953231;28;20236;-59
2022/08/31 10:45:39;;;;;;;0.95;0.85;;;;;;;;;;4944954;28;20260;-56
2022/08/31 10:48:05;;;;;;;1.25;0.70;;;;;;;;;;4946059;28;20235;-58
2022/08/31 10:50:39;;;;;;;1.00;0.70;;;;;;;;;;4945911;28;20262;-58
2022/08/31 10:53:12;;;;;;;1.35;0.90;;;;;;;;;;4944787;28;20231;-59
2022/08/31 10:55:42;;;;;;;0.88;0.77;;;;;;;;;;4947325;28;20267;-56
2022/08/31 10:58:15;;;;;;;0.90;0.90;;;;;;;;;;4941691;28;20239;-61
2022/08/31 11:00:48;;;;;;;1.48;0.73;;;;;;;;;;4938931;28;20242;-56
2022/08/31 11:03:19;;;;;;;1.17;0.80;;;;;;;;;;4944068;28;20242;-57
2022/08/31 11:05:47;;;;;;;1.52;0.93;;;;;;;;;;4944657;28;20235;-58
2022/08/31 11:08:22;;;;;;;0.98;0.73;;;;;;;;;;4944350;28;20253;-59
2022/08/31 11:10:50;;;;;;;1.27;0.88;;;;;;;;;;4943816;28;20235;-57
2022/08/31 11:13:26;;;;;;;1.65;0.75;;;;;;;;;;4944682;28;20290;-59
2022/08/31 11:15:58;;;;;;;1.50;0.80;;;;;;;;;;4944637;28;20238;-57
2022/08/31 11:18:39;;;;;;;1.15;0.82;;;;;;;;;;4939405;28;20297;-57
2022/08/31 11:21:14;;;;;;;0.80;0.80;;;;;;;;;;4946958;28;20239;-57
2022/08/31 11:23:49;;;;;;;0.80;0.80;;;;;;;;;;4933671;28;20243;-58
2022/08/31 11:26:45;;;;;;;1.27;0.63;;;;;;;;;;4938806;29;20705;-59
2022/08/31 11:29:17;;;;;;;3.60;0.70;;;;;;;;;;4943185;28;20235;-58
2022/08/31 11:31:43;;;;;;;0.77;0.60;;;;;;;;;;4941533;28;20314;-56
2022/08/31 11:34:12;;;;;;;1.00;0.80;;;;;;;;;;4943954;28;20232;-58
2022/08/31 11:36:48;;;;;;;0.88;0.65;;;;;;;;;;4935134;28;20689;-57
2022/08/31 11:39:20;;;;;;;1.67;0.90;;;;;;;;;;4941573;28;20293;-57
2022/08/31 11:41:47;;;;;;;1.00;0.82;;;;;;;;;;4940877;28;20338;-58
2022/08/31 11:44:32;;;;;;;0.57;0.57;;;;;;;;;;4934132;28;20611;-57
2022/08/31 11:47:03;;;;;;;3.15;1.10;;;;;;;;;;4937096;28;20273;-57
2022/08/31 11:49:44;;;;;;;1.77;0.90;;;;;;;;;;4943294;28;20240;-57
2022/08/31 11:52:13;;;;;;;0.82;0.68;;;;;;;;;;4937682;28;20253;-58
2022/08/31 11:54:58;;;;;;;1.38;0.88;;;;;;;;;;4942281;28;20673;-55
2022/08/31 11:57:30;;;;;;;1.10;0.60;;;;;;;;;;4923459;29;20228;-57
2022/08/31 11:59:57;;;;;;;0.88;0.82;;;;;;;;;;4941528;28;20251;-57
2022/08/31 12:02:44;;;;;;;0.80;0.77;;;;;;;;;;4942591;28;20242;-58
2022/08/31 12:05:10;;;;;;;0.77;0.77;;;;;;;;;;4946707;28;20254;-55
2022/08/31 12:07:40;;;;;;;2.63;0.70;;;;;;;;;;4940747;28;20231;-57
2022/08/31 12:10:24;;;;;;;1.17;0.85;;;;;;;;;;4949872;28;20244;-56
2022/08/31 12:13:17;;;;;;;0.82;0.70;;;;;;;;;;4943052;28;20245;-58
2022/08/31 12:15:59;;;;;;;1.33;0.90;;;;;;;;;;4938822;29;20241;-56
2022/08/31 12:18:33;;;;;;;1.58;0.80;;;;;;;;;;4949210;28;20708;-56
2022/08/31 12:23:55;;;;;;;0.65;0.65;;;;;;;;;;4941357;29;20242;-56
2022/08/31 12:26:34;;;;;;;1.40;0.95;;;;;;;;;;4944454;28;20245;-57
2022/08/31 12:29:17;;;;;;;1.27;0.68;;;;;;;;;;4946061;28;20325;-57
2022/08/31 12:31:56;;;;;;;2.50;0.90;;;;;;;;;;4939632;28;20298;-56
2022/08/31 12:34:22;;;;;;;1.98;0.95;;;;;;;;;;4939441;28;20235;-57
2022/08/31 12:36:48;;;;;;;1.85;0.85;;;;;;;;;;4946527;28;20236;-57
2022/08/31 12:39:19;;;;;;;0.75;0.60;;;;;;;;;;4946271;28;20243;-56
2022/08/31 12:41:48;;;;;;;1.23;1.00;;;;;;;;;;4947372;28;20227;-55
2022/08/31 12:44:19;;;;;;;1.48;0.73;;;;;;;;;;4941257;28;20240;-57
2022/08/31 12:46:53;;;;;;;1.15;0.88;;;;;;;;;;4946228;28;20239;-56
2022/08/31 12:49:28;;;;;;;1.10;0.77;;;;;;;;;;4941417;28;20637;-57
2022/08/31 12:51:59;;;;;;;1.73;0.65;;;;;;;;;;4933699;28;20234;-57
2022/08/31 12:54:42;;;;;;;2.60;0.68;;;;;;;;;;4944022;28;20247;-57
2022/08/31 12:57:12;;;;;;;1.65;0.82;;;;;;;;;;4938170;28;20234;-58
2022/08/31 12:59:43;;;;;;;3.22;1.00;;;;;;;;;;4944298;28;20242;-57
2022/08/31 13:02:11;;;;;;;1.05;0.68;;;;;;;;;;4942735;28;20246;-56
2022/08/31 13:04:42;;;;;;;1.10;0.40;;;;;;;;;;4938440;28;20250;-56
2022/08/31 13:07:17;;;;;;;1.17;0.90;;;;;;;;;;4944148;28;20590;-56
2022/08/31 13:09:44;;;;;;;1.77;0.80;;;;;;;;;;4938514;28;20227;-56
2022/08/31 13:12:21;;;;;;;1.00;0.80;;;;;;;;;;4937462;28;20247;-56
2022/08/31 13:14:47;;;;;;;1.08;0.70;;;;;;;;;;4939586;28;20239;-57
2022/08/31 13:17:16;;;;;;;2.72;0.65;;;;;;;;;;4940703;28;20860;-57
2022/08/31 13:19:48;;;;;;;1.40;0.95;;;;;;;;;;4943844;28;20238;-55
2022/08/31 13:22:22;;;;;;;0.88;0.80;;;;;;;;;;4936875;28;20236;-56
2022/08/31 13:24:49;;;;;;;1.10;0.85;;;;;;;;;;4943005;28;20241;-57
2022/08/31 13:27:18;;;;;;;0.70;0.70;;;;;;;;;;4939872;28;20246;-57
2022/08/31 13:29:44;;;;;;;4.97;0.88;;;;;;;;;;4932942;28;20270;-56
2022/08/31 13:32:11;;;;;;;0.85;0.73;;;;;;;;;;4943236;28;20283;-54
2022/08/31 13:34:41;;;;;;;1.75;0.93;;;;;;;;;;4939133;28;20238;-57
2022/08/31 13:37:10;;;;;;;1.40;0.90;;;;;;;;;;4940501;28;20235;-56
2022/08/31 13:39:43;;;;;;;1.25;1.05;;;;;;;;;;4942167;28;20237;-56
2022/08/31 13:42:10;;;;;;;1.90;0.70;;;;;;;;;;4941226;28;20239;-57
2022/08/31 13:44:39;;;;;;;1.52;0.88;;;;;;;;;;4945087;28;20231;-58
2022/08/31 13:47:15;;;;;;;1.48;0.65;;;;;;;;;;4939760;28;20239;-56
2022/08/31 13:49:44;;;;;;;1.23;0.77;;;;;;;;;;4936457;28;20249;-57
2022/08/31 13:52:15;;;;;;;0.77;0.60;;;;;;;;;;4941687;28;20234;-56
2022/08/31 13:54:41;;;;;;;1.00;0.75;;;;;;;;;;4923907;28;20288;-55
2022/08/31 13:57:09;;;;;;;0.82;0.70;;;;;;;;;;4934972;28;20232;-56
2022/08/31 13:59:36;;;;;;;0.75;0.68;;;;;;;;;;4939394;28;20246;-58
2022/08/31 14:02:05;;;;;;;0.95;0.47;;;;;;;;;;4941175;28;20243;-56
2022/08/31 14:04:42;;;;;;;0.85;0.85;;;;;;;;;;4938166;28;20239;-58
2022/08/31 14:07:15;;;;;;;1.48;0.95;;;;;;;;;;4940897;28;20709;-56
2022/08/31 14:09:43;;;;;;;1.27;0.80;;;;;;;;;;4943618;28;21644;-56
2022/08/31 14:12:18;;;;;;;0.55;0.55;;;;;;;;;;4943394;28;20611;-57
2022/08/31 14:14:45;;;;;;;1.83;1.05;;;;;;;;;;4943986;28;20230;-56
2022/08/31 14:17:14;;;;;;;1.42;0.80;;;;;;;;;;4935264;28;20233;-57
2022/08/31 14:19:42;;;;;;;3.70;0.90;;;;;;;;;;4937247;28;20231;-56
2022/08/31 14:22:26;;;;;;;2.70;1.20;;;;;;;;;;4946543;28;20243;-56
2022/08/31 14:24:54;;;;;;;3.53;1.23;;;;;;;;;;4940873;28;20238;-59
2022/08/31 14:27:20;;;;;;;1.20;0.75;;;;;;;;;;4941046;28;20270;-55
2022/08/31 14:29:47;;;;;;;1.63;1.00;;;;;;;;;;4940237;28;20246;-56
2022/08/31 14:32:13;;;;;;;0.63;0.63;;;;;;;;;;4937193;28;20710;-57
2022/08/31 14:34:47;;;;;;;1.65;0.98;;;;;;;;;;4931080;28;20231;-56
2022/08/31 14:37:18;;;;;;;1.40;0.80;;;;;;;;;;4935809;28;20235;-58
2022/08/31 14:39:47;;;;;;;0.77;0.73;;;;;;;;;;4944678;28;20827;-58
2022/08/31 14:42:17;;;;;;;0.90;0.82;;;;;;;;;;4937260;29;20235;-57
2022/08/31 14:44:46;;;;;;;0.88;0.70;;;;;;;;;;4934083;28;20235;-56
2022/08/31 14:47:13;;;;;;;1.88;0.75;;;;;;;;;;4930187;28;20271;-55
2022/08/31 14:49:42;;;;;;;1.55;0.90;;;;;;;;;;4944263;28;20568;-56
2022/08/31 14:52:10;;;;;;;1.02;0.90;;;;;;;;;;4939948;28;20698;-56
2022/08/31 14:54:36;;;;;;;2.80;0.93;;;;;;;;;;4932930;28;20227;-55
2022/08/31 14:57:05;;;;;;;1.63;0.95;;;;;;;;;;4940271;28;20254;-56
2022/08/31 14:59:33;;;;;;;1.27;1.08;;;;;;;;;;4942859;28;20228;-57
2022/08/31 15:02:00;;;;;;;0.93;0.75;;;;;;;;;;4943474;28;20317;-58
2022/08/31 15:04:26;;;;;;;8.25;1.13;;;;;;;;;;4940617;28;20239;-57
2022/08/31 15:06:55;;;;;;;1.20;0.70;;;;;;;;;;4938855;28;20248;-56
2022/08/31 15:09:22;;;;;;;2.33;1.95;;;;;;;;;;4942141;28;20318;-57